Time;durP1;ratioP1;P1;durP2;ratioP2;P2;SDS_P1;SDS_P2;PMS_P1;PMS_P2;Temp;Humidity;BMP_temperature;BMP_pressure;BME280_temperature;BME280_humidity;BME280_pressure;Samples;Min_cycle;Max_cycle;Signal;HPM_P1;HPM_P2
2022/01/18 00:00:56;;;;;;;13.70;4.07;;;;;;;;;;5071959;28;20249;-65
2022/01/18 00:03:22;;;;;;;12.93;3.80;;;;;;;;;;5071898;28;20450;-64
2022/01/18 00:05:50;;;;;;;16.13;3.70;;;;;;;;;;5071950;28;20533;-65
2022/01/18 00:08:17;;;;;;;11.40;2.70;;;;;;;;;;5072042;28;20269;-64
2022/01/18 00:10:43;;;;;;;11.83;3.10;;;;;;;;;;5071809;28;20426;-65
2022/01/18 00:13:24;;;;;;;7.70;2.37;;;;;;;;;;5071685;28;20482;-64
2022/01/18 00:16:08;;;;;;;12.83;3.03;;;;;;;;;;5071754;28;20199;-66
2022/01/18 00:18:36;;;;;;;9.43;2.90;;;;;;;;;;5071823;28;20215;-65
2022/01/18 00:23:33;;;;;;;11.60;3.27;;;;;;;;;;5071842;28;20851;-65
2022/01/18 00:25:59;;;;;;;12.37;3.37;;;;;;;;;;5071748;28;20440;-65
2022/01/18 00:28:27;;;;;;;9.17;3.13;;;;;;;;;;5071891;28;20245;-64
2022/01/18 00:33:25;;;;;;;14.83;3.23;;;;;;;;;;5071540;28;20930;-59
2022/01/18 00:35:59;;;;;;;9.20;3.20;;;;;;;;;;5071583;28;20430;-59
2022/01/18 00:38:47;;;;;;;8.50;2.93;;;;;;;;;;5071646;28;20799;-59
2022/01/18 00:41:13;;;;;;;11.80;2.77;;;;;;;;;;5071484;28;20928;-59
2022/01/18 00:43:39;;;;;;;13.57;3.13;;;;;;;;;;5071847;28;20433;-59
2022/01/18 00:46:05;;;;;;;13.30;3.13;;;;;;;;;;5075338;28;20833;-59
2022/01/18 00:48:34;;;;;;;10.67;2.60;;;;;;;;;;5073493;28;20919;-58
2022/01/18 00:51:00;;;;;;;15.03;2.93;;;;;;;;;;5075319;28;20568;-58
2022/01/18 00:53:31;;;;;;;14.10;2.80;;;;;;;;;;5075218;28;20231;-58
2022/01/18 00:56:17;;;;;;;8.43;2.50;;;;;;;;;;5075207;28;20220;-58
2022/01/18 00:58:44;;;;;;;8.63;2.43;;;;;;;;;;5075204;28;20440;-59
2022/01/18 01:01:11;;;;;;;8.23;2.57;;;;;;;;;;5075287;28;20651;-57
2022/01/18 01:03:37;;;;;;;12.63;2.83;;;;;;;;;;5075107;28;20912;-58
2022/01/18 01:06:03;;;;;;;9.97;2.53;;;;;;;;;;5075129;28;20441;-58
2022/01/18 01:08:31;;;;;;;9.80;2.67;;;;;;;;;;5075068;28;20460;-59
2022/01/18 01:10:57;;;;;;;10.43;2.90;;;;;;;;;;5074912;28;20433;-59
2022/01/18 01:13:23;;;;;;;9.63;2.87;;;;;;;;;;5074844;28;20250;-59
2022/01/18 01:16:20;;;;;;;10.40;3.00;;;;;;;;;;5074956;28;20191;-58
2022/01/18 01:33:01;;;;;;;10.80;2.73;;;;;;;;;;5074500;28;20410;-57
2022/01/18 01:43:50;;;;;;;11.60;2.23;;;;;;;;;;5074401;28;20206;-59
2022/01/18 01:46:07;;;;;;;11.17;2.40;;;;;;;;;;5074030;28;20444;-58
2022/01/18 01:48:33;;;;;;;7.30;2.30;;;;;;;;;;5074349;28;20229;-58
2022/01/18 01:51:04;;;;;;;13.33;2.90;;;;;;;;;;5074303;28;20253;-59
2022/01/18 01:53:31;;;;;;;10.07;2.50;;;;;;;;;;5074121;28;20239;-57
2022/01/18 01:55:58;;;;;;;13.13;2.60;;;;;;;;;;5074164;28;20192;-57
2022/01/18 01:58:25;;;;;;;12.17;2.80;;;;;;;;;;5074122;28;20429;-58
2022/01/18 02:00:58;;;;;;;10.90;3.07;;;;;;;;;;5073940;28;20846;-57
2022/01/18 02:03:24;;;;;;;9.20;2.73;;;;;;;;;;5074083;28;20437;-57
2022/01/18 02:05:51;;;;;;;9.37;3.20;;;;;;;;;;5074010;28;20461;-57
2022/01/18 02:08:17;;;;;;;10.47;2.80;;;;;;;;;;5074032;28;20497;-58
2022/01/18 02:10:44;;;;;;;8.83;2.73;;;;;;;;;;5073810;28;20943;-57
2022/01/18 02:13:12;;;;;;;9.13;2.23;;;;;;;;;;5071873;28;20551;-58
2022/01/18 02:15:43;;;;;;;10.07;3.13;;;;;;;;;;5073706;28;20440;-57
2022/01/18 02:23:40;;;;;;;13.27;3.60;;;;;;;;;;5073586;28;20449;-58
2022/01/18 02:26:06;;;;;;;7.47;3.00;;;;;;;;;;5073503;28;20800;-57
2022/01/18 02:28:32;;;;;;;16.47;3.07;;;;;;;;;;5073680;28;20203;-57
2022/01/18 02:30:58;;;;;;;11.70;3.20;;;;;;;;;;5073378;28;20446;-58
2022/01/18 02:33:24;;;;;;;8.83;2.47;;;;;;;;;;5073357;28;20465;-58
2022/01/18 02:35:51;;;;;;;11.67;2.87;;;;;;;;;;5073415;28;20474;-57
2022/01/18 02:38:18;;;;;;;9.57;2.70;;;;;;;;;;5073260;28;20816;-58
2022/01/18 02:40:44;;;;;;;11.97;3.00;;;;;;;;;;5073315;28;20434;-56
2022/01/18 02:45:56;;;;;;;10.93;2.70;;;;;;;;;;5073126;28;21001;-56
2022/01/18 02:48:22;;;;;;;5.20;2.10;;;;;;;;;;5073126;28;20425;-57
2022/01/18 02:50:48;;;;;;;11.80;2.43;;;;;;;;;;5073074;28;20438;-57
2022/01/18 02:53:16;;;;;;;9.57;2.50;;;;;;;;;;5072932;28;20478;-57
2022/01/18 02:55:44;;;;;;;11.70;2.77;;;;;;;;;;5072879;28;20675;-57
2022/01/18 02:58:10;;;;;;;13.53;2.93;;;;;;;;;;5072885;28;20540;-58
2022/01/18 03:03:24;;;;;;;9.07;2.13;;;;;;;;;;5072862;28;20278;-59
2022/01/18 03:05:50;;;;;;;15.33;2.63;;;;;;;;;;5072809;28;20457;-58
2022/01/18 03:08:17;;;;;;;8.13;2.60;;;;;;;;;;5072327;28;20935;-58
2022/01/18 03:10:45;;;;;;;8.03;2.70;;;;;;;;;;5072645;28;20696;-58
2022/01/18 03:13:11;;;;;;;6.97;2.63;;;;;;;;;;5072228;28;20520;-59
2022/01/18 03:15:37;;;;;;;11.37;2.17;;;;;;;;;;5072511;28;20457;-58
2022/01/18 03:18:04;;;;;;;13.37;3.10;;;;;;;;;;5072530;28;20781;-57
2022/01/18 03:20:30;;;;;;;7.63;2.40;;;;;;;;;;5072640;28;20792;-58
2022/01/18 03:22:56;;;;;;;8.40;2.40;;;;;;;;;;5072384;28;20517;-58
2022/01/18 03:28:06;;;;;;;8.33;2.27;;;;;;;;;;5072454;28;20438;-58
2022/01/18 03:30:32;;;;;;;5.77;2.30;;;;;;;;;;5072583;28;20485;-58
2022/01/18 03:32:58;;;;;;;8.73;2.00;;;;;;;;;;5072174;28;20799;-59
2022/01/18 03:35:24;;;;;;;7.60;2.73;;;;;;;;;;5072418;28;20434;-59
2022/01/18 03:37:50;;;;;;;14.17;2.80;;;;;;;;;;5072207;28;20445;-58
2022/01/18 03:40:16;;;;;;;12.27;2.80;;;;;;;;;;5072224;28;20657;-59
2022/01/18 03:42:45;;;;;;;6.73;2.30;;;;;;;;;;5072232;28;20472;-58
2022/01/18 03:45:13;;;;;;;6.50;2.10;;;;;;;;;;5072151;28;20422;-58
2022/01/18 03:47:39;;;;;;;6.07;2.53;;;;;;;;;;5072085;28;20450;-58
2022/01/18 03:50:07;;;;;;;10.17;2.83;;;;;;;;;;5072069;28;20430;-58
2022/01/18 03:52:33;;;;;;;8.00;2.27;;;;;;;;;;5072213;28;20426;-58
2022/01/18 03:54:59;;;;;;;11.93;2.80;;;;;;;;;;5071876;28;20470;-57
2022/01/18 03:57:25;;;;;;;9.23;2.93;;;;;;;;;;5072224;28;20462;-57
2022/01/18 03:59:51;;;;;;;14.90;3.40;;;;;;;;;;5072094;28;20491;-58
2022/01/18 04:02:19;;;;;;;6.80;2.80;;;;;;;;;;5072068;28;20468;-58
2022/01/18 04:04:45;;;;;;;11.90;2.87;;;;;;;;;;5072155;28;20452;-58
2022/01/18 04:07:11;;;;;;;7.07;2.40;;;;;;;;;;5071878;28;20446;-58
2022/01/18 04:09:37;;;;;;;7.03;3.33;;;;;;;;;;5072039;28;20438;-60
2022/01/18 04:12:04;;;;;;;11.23;4.33;;;;;;;;;;5071747;28;21048;-57
2022/01/18 04:14:30;;;;;;;11.50;4.10;;;;;;;;;;5071943;28;20481;-58
2022/01/18 04:27:25;;;;;;;10.97;5.03;;;;;;;;;;5075872;28;20413;-57
2022/01/18 04:29:51;;;;;;;7.90;5.40;;;;;;;;;;5074500;28;20195;-58
2022/01/18 04:32:17;;;;;;;13.60;5.27;;;;;;;;;;5075823;28;20213;-58
2022/01/18 04:34:44;;;;;;;10.70;5.53;;;;;;;;;;5075426;28;20228;-58
2022/01/18 04:37:10;;;;;;;12.30;6.67;;;;;;;;;;5075334;28;20796;-58
2022/01/18 04:39:40;;;;;;;10.13;5.90;;;;;;;;;;5075580;28;20483;-58
2022/01/18 04:42:16;;;;;;;9.43;6.20;;;;;;;;;;5075465;28;20434;-58
2022/01/18 04:50:13;;;;;;;10.87;7.53;;;;;;;;;;5075224;28;20425;-58
2022/01/18 04:52:39;;;;;;;14.23;8.90;;;;;;;;;;5075292;28;20442;-58
2022/01/18 04:55:06;;;;;;;14.80;8.53;;;;;;;;;;5075139;28;20992;-59
2022/01/18 05:00:17;;;;;;;13.83;7.70;;;;;;;;;;5075197;28;20463;-59
2022/01/18 05:02:43;;;;;;;14.50;7.60;;;;;;;;;;5075122;28;20430;-60
2022/01/18 05:05:11;;;;;;;14.27;7.70;;;;;;;;;;5074990;28;20465;-60
2022/01/18 05:07:39;;;;;;;12.00;7.27;;;;;;;;;;5075085;28;20441;-59
2022/01/18 05:10:05;;;;;;;11.60;6.77;;;;;;;;;;5075041;28;20426;-59
2022/01/18 05:12:45;;;;;;;9.83;7.50;;;;;;;;;;5074363;28;20548;-59
2022/01/18 05:20:57;;;;;;;9.77;7.20;;;;;;;;;;5073859;28;20426;-59
2022/01/18 05:23:24;;;;;;;12.83;7.43;;;;;;;;;;5073456;28;20469;-60
2022/01/18 05:25:50;;;;;;;14.80;7.30;;;;;;;;;;5073591;28;20458;-60
2022/01/18 05:28:16;;;;;;;13.23;7.60;;;;;;;;;;5073416;28;20433;-59
2022/01/18 05:30:42;;;;;;;15.87;7.87;;;;;;;;;;5073213;28;20203;-59
2022/01/18 05:33:08;;;;;;;12.97;7.83;;;;;;;;;;5073385;28;20208;-59
2022/01/18 05:35:41;;;;;;;10.87;6.70;;;;;;;;;;5073452;28;20650;-60
2022/01/18 05:38:07;;;;;;;12.73;7.63;;;;;;;;;;5073000;28;20962;-60
2022/01/18 05:40:36;;;;;;;15.67;8.47;;;;;;;;;;5073550;28;20475;-60
2022/01/18 05:43:02;;;;;;;19.23;8.30;;;;;;;;;;5073340;28;20861;-60
2022/01/18 05:45:28;;;;;;;16.97;8.93;;;;;;;;;;5073328;28;20442;-60
2022/01/18 05:47:54;;;;;;;15.27;8.27;;;;;;;;;;5073206;28;20200;-60
2022/01/18 05:50:20;;;;;;;16.97;9.27;;;;;;;;;;5073073;28;20199;-61
2022/01/18 05:52:45;;;;;;;17.27;9.30;;;;;;;;;;5073225;28;20195;-60
2022/01/18 05:55:11;;;;;;;20.23;9.97;;;;;;;;;;5072829;28;20305;-58
2022/01/18 05:57:39;;;;;;;24.00;9.83;;;;;;;;;;5072925;28;20223;-58
2022/01/18 06:00:07;;;;;;;19.57;9.53;;;;;;;;;;5072914;28;20202;-58
2022/01/18 06:02:43;;;;;;;20.70;9.47;;;;;;;;;;5073002;28;20522;-59
2022/01/18 06:07:54;;;;;;;21.93;10.40;;;;;;;;;;5072655;28;20422;-58
2022/01/18 06:10:20;;;;;;;25.30;9.70;;;;;;;;;;5072551;28;20959;-58
2022/01/18 06:12:47;;;;;;;16.20;9.90;;;;;;;;;;5037540;28;1007894;-59
2022/01/18 06:15:13;;;;;;;21.63;10.50;;;;;;;;;;5073311;28;20234;-58
2022/01/18 06:17:39;;;;;;;19.43;10.20;;;;;;;;;;5073255;28;20882;-59
2022/01/18 06:20:06;;;;;;;22.83;10.80;;;;;;;;;;5072698;28;20433;-59
2022/01/18 06:22:32;;;;;;;25.60;10.77;;;;;;;;;;5073219;28;20239;-59
2022/01/18 06:24:58;;;;;;;23.33;9.73;;;;;;;;;;5073461;28;20434;-58
2022/01/18 06:27:24;;;;;;;18.67;9.20;;;;;;;;;;5073351;28;20430;-58
2022/01/18 06:29:52;;;;;;;18.37;10.03;;;;;;;;;;5073461;28;20613;-59
2022/01/18 06:32:18;;;;;;;25.40;10.67;;;;;;;;;;5073248;28;20196;-59
2022/01/18 06:34:44;;;;;;;17.00;9.57;;;;;;;;;;5072960;28;20556;-60
2022/01/18 06:37:10;;;;;;;25.60;10.13;;;;;;;;;;5072481;28;20492;-58
2022/01/18 06:39:36;;;;;;;23.73;11.97;;;;;;;;;;5073076;28;20444;-58
2022/01/18 06:42:03;;;;;;;25.97;11.40;;;;;;;;;;5072382;28;20430;-58
2022/01/18 06:44:29;;;;;;;25.30;11.97;;;;;;;;;;5073126;28;20529;-58
2022/01/18 06:46:56;;;;;;;28.10;13.07;;;;;;;;;;5072974;28;20525;-58
2022/01/18 06:49:22;;;;;;;18.60;11.37;;;;;;;;;;5072883;28;20215;-58
2022/01/18 06:51:48;;;;;;;30.37;12.93;;;;;;;;;;5073020;28;20195;-58
2022/01/18 06:54:16;;;;;;;18.87;11.30;;;;;;;;;;5072665;28;20569;-58
2022/01/18 06:56:45;;;;;;;21.13;11.30;;;;;;;;;;5072788;28;20990;-59
2022/01/18 06:59:12;;;;;;;29.47;12.63;;;;;;;;;;5072695;28;20701;-58
2022/01/18 07:01:38;;;;;;;28.43;11.93;;;;;;;;;;5072572;28;20426;-58
2022/01/18 07:04:05;;;;;;;22.53;11.40;;;;;;;;;;5072721;28;20429;-58
2022/01/18 07:06:32;;;;;;;28.73;11.90;;;;;;;;;;5072600;28;20464;-59
2022/01/18 07:08:58;;;;;;;31.37;12.17;;;;;;;;;;5072714;28;20430;-58
2022/01/18 07:11:24;;;;;;;29.10;13.50;;;;;;;;;;5072267;28;20496;-59
2022/01/18 07:13:50;;;;;;;25.03;13.67;;;;;;;;;;5072289;28;20318;-59
2022/01/18 07:16:16;;;;;;;27.20;12.70;;;;;;;;;;5072381;28;20257;-60
2022/01/18 07:18:42;;;;;;;25.50;14.07;;;;;;;;;;5072506;28;20253;-58
2022/01/18 07:21:09;;;;;;;29.13;13.43;;;;;;;;;;5072495;28;20426;-59
2022/01/18 07:23:35;;;;;;;26.37;13.90;;;;;;;;;;5072087;28;20466;-59
2022/01/18 07:26:01;;;;;;;21.50;13.17;;;;;;;;;;5072301;28;20769;-59
2022/01/18 07:28:27;;;;;;;23.93;13.10;;;;;;;;;;5072193;28;20202;-59
2022/01/18 07:30:53;;;;;;;26.30;14.50;;;;;;;;;;5072319;28;20282;-58
2022/01/18 07:33:20;;;;;;;33.47;15.77;;;;;;;;;;5072118;28;20650;-58
2022/01/18 07:35:46;;;;;;;29.03;14.00;;;;;;;;;;5071015;28;20442;-58
2022/01/18 07:38:17;;;;;;;33.67;15.97;;;;;;;;;;5072191;28;20557;-59
2022/01/18 07:40:44;;;;;;;30.87;14.87;;;;;;;;;;5072360;28;20442;-59
2022/01/18 07:43:11;;;;;;;27.83;14.33;;;;;;;;;;5072062;28;20584;-59
2022/01/18 07:45:37;;;;;;;32.27;14.67;;;;;;;;;;5072027;28;20436;-58
2022/01/18 07:48:03;;;;;;;32.47;14.23;;;;;;;;;;5070492;28;20917;-58
2022/01/18 07:50:29;;;;;;;27.60;12.70;;;;;;;;;;5072065;28;20203;-58
2022/01/18 07:52:56;;;;;;;34.33;14.87;;;;;;;;;;5070108;28;20253;-58
2022/01/18 07:55:23;;;;;;;30.97;13.73;;;;;;;;;;5071869;28;20223;-60
2022/01/18 07:57:49;;;;;;;30.40;13.37;;;;;;;;;;5072269;28;20457;-59
2022/01/18 08:00:16;;;;;;;36.70;14.60;;;;;;;;;;5072086;28;20273;-59
2022/01/18 08:02:42;;;;;;;23.87;13.43;;;;;;;;;;5072048;28;20526;-58
2022/01/18 08:05:10;;;;;;;37.70;14.67;;;;;;;;;;5071915;28;20438;-59
2022/01/18 08:07:36;;;;;;;39.63;15.43;;;;;;;;;;5071710;28;20425;-59
2022/01/18 08:10:02;;;;;;;30.10;14.23;;;;;;;;;;5071966;28;20942;-58
2022/01/18 08:12:30;;;;;;;35.43;13.50;;;;;;;;;;5071733;28;20273;-59
2022/01/18 08:15:02;;;;;;;29.20;12.77;;;;;;;;;;5071583;28;20428;-59
2022/01/18 08:17:28;;;;;;;29.60;12.20;;;;;;;;;;5071384;28;20195;-58
2022/01/18 08:19:54;;;;;;;42.80;13.17;;;;;;;;;;5071758;28;20222;-58
2022/01/18 08:22:20;;;;;;;33.13;14.70;;;;;;;;;;5071711;28;20195;-58
2022/01/18 08:24:46;;;;;;;37.53;15.23;;;;;;;;;;5071753;28;20192;-59
2022/01/18 08:27:12;;;;;;;33.77;13.70;;;;;;;;;;5071799;28;20479;-58
2022/01/18 08:29:39;;;;;;;31.00;13.33;;;;;;;;;;5071672;28;20520;-59
2022/01/18 08:32:06;;;;;;;38.13;14.53;;;;;;;;;;5071830;28;20441;-59
2022/01/18 08:34:32;;;;;;;33.03;14.57;;;;;;;;;;5071664;28;20224;-59
2022/01/18 08:36:58;;;;;;;37.33;14.97;;;;;;;;;;5071687;28;20434;-59
2022/01/18 08:39:24;;;;;;;34.03;14.50;;;;;;;;;;5071320;28;20441;-59
2022/01/18 08:41:50;;;;;;;39.83;14.27;;;;;;;;;;5071735;28;20807;-59
2022/01/18 08:44:17;;;;;;;37.67;15.10;;;;;;;;;;5071569;28;20446;-59
2022/01/18 08:46:44;;;;;;;34.20;14.27;;;;;;;;;;5071675;28;20207;-59
2022/01/18 08:49:10;;;;;;;33.93;14.47;;;;;;;;;;5071622;28;20796;-59
2022/01/18 08:51:36;;;;;;;39.80;16.63;;;;;;;;;;5071248;28;20983;-59
2022/01/18 08:54:02;;;;;;;42.47;15.13;;;;;;;;;;5071589;28;20327;-59
2022/01/18 08:56:29;;;;;;;36.20;14.60;;;;;;;;;;5071281;28;20661;-59
2022/01/18 08:58:55;;;;;;;41.97;15.60;;;;;;;;;;5071239;28;20438;-58
2022/01/18 09:01:21;;;;;;;37.30;14.47;;;;;;;;;;5071350;28;20199;-59
2022/01/18 09:03:50;;;;;;;39.70;13.37;;;;;;;;;;5071414;28;20434;-60
2022/01/18 09:06:16;;;;;;;45.30;14.83;;;;;;;;;;5074307;28;20227;-58
2022/01/18 09:08:43;;;;;;;35.93;14.00;;;;;;;;;;5075159;28;20203;-58
2022/01/18 09:11:11;;;;;;;44.47;14.20;;;;;;;;;;5075069;28;20196;-58
2022/01/18 09:13:37;;;;;;;46.10;14.27;;;;;;;;;;5074634;28;20470;-59
2022/01/18 09:16:06;;;;;;;31.90;13.37;;;;;;;;;;5075080;28;20422;-59
2022/01/18 09:18:32;;;;;;;31.40;13.13;;;;;;;;;;5074804;28;20227;-59
2022/01/18 09:20:59;;;;;;;28.13;12.63;;;;;;;;;;5074842;28;20234;-59
2022/01/18 09:23:26;;;;;;;40.50;13.00;;;;;;;;;;5074688;28;20203;-59
2022/01/18 09:25:52;;;;;;;38.00;12.30;;;;;;;;;;5074812;28;20782;-59
2022/01/18 09:28:18;;;;;;;43.87;13.60;;;;;;;;;;5074771;28;20245;-59
2022/01/18 09:30:44;;;;;;;38.10;13.67;;;;;;;;;;5074570;28;20212;-59
2022/01/18 09:33:10;;;;;;;36.97;12.70;;;;;;;;;;5074629;28;20238;-58
2022/01/18 09:35:38;;;;;;;31.77;12.93;;;;;;;;;;5074382;28;20223;-60
2022/01/18 09:38:06;;;;;;;33.60;12.10;;;;;;;;;;5074658;28;20239;-58
2022/01/18 09:40:37;;;;;;;38.70;13.70;;;;;;;;;;5074559;28;20287;-58
2022/01/18 09:43:08;;;;;;;35.13;13.17;;;;;;;;;;5074648;28;20438;-59
2022/01/18 09:45:34;;;;;;;37.53;12.47;;;;;;;;;;5072727;28;20196;-60
2022/01/18 09:48:02;;;;;;;33.90;12.33;;;;;;;;;;5074485;28;20247;-60
2022/01/18 09:50:31;;;;;;;31.20;12.10;;;;;;;;;;5074275;28;20195;-59
2022/01/18 09:52:58;;;;;;;36.17;11.77;;;;;;;;;;5074192;28;20204;-60
2022/01/18 09:55:27;;;;;;;26.50;11.23;;;;;;;;;;5074059;28;20223;-59
2022/01/18 09:57:53;;;;;;;28.13;10.90;;;;;;;;;;5074261;28;20294;-59
2022/01/18 10:00:19;;;;;;;31.37;10.33;;;;;;;;;;5074106;28;20206;-60
2022/01/18 10:02:46;;;;;;;25.93;9.53;;;;;;;;;;5074083;28;20287;-61
2022/01/18 10:05:19;;;;;;;25.40;11.80;;;;;;;;;;5074125;28;20211;-60
2022/01/18 10:07:46;;;;;;;25.43;8.87;;;;;;;;;;5073951;28;20302;-61
2022/01/18 10:10:12;;;;;;;29.17;9.17;;;;;;;;;;5074044;28;20192;-63
2022/01/18 10:12:39;;;;;;;21.70;9.40;;;;;;;;;;5073728;28;20238;-63
2022/01/18 10:15:05;;;;;;;24.77;9.40;;;;;;;;;;5073817;28;20330;-70
2022/01/18 10:17:33;;;;;;;25.47;8.87;;;;;;;;;;5072527;28;20195;-60
2022/01/18 10:20:05;;;;;;;21.33;8.20;;;;;;;;;;5073593;28;20195;-61
2022/01/18 10:22:35;;;;;;;23.00;7.70;;;;;;;;;;5073280;28;20195;-61
2022/01/18 10:25:12;;;;;;;17.63;7.70;;;;;;;;;;5073723;28;20199;-59
2022/01/18 10:27:39;;;;;;;18.10;7.37;;;;;;;;;;5073224;28;20200;-59
2022/01/18 10:30:06;;;;;;;17.27;7.70;;;;;;;;;;5072998;28;20748;-60
2022/01/18 10:32:39;;;;;;;26.50;8.30;;;;;;;;;;5073378;28;20231;-61
2022/01/18 10:35:07;;;;;;;17.23;6.63;;;;;;;;;;5073234;28;20292;-60
2022/01/18 10:37:34;;;;;;;20.70;7.00;;;;;;;;;;5073227;28;20203;-60
2022/01/18 10:40:00;;;;;;;18.13;6.67;;;;;;;;;;5073231;28;20598;-61
2022/01/18 10:42:36;;;;;;;17.33;6.67;;;;;;;;;;5073027;28;20200;-61
2022/01/18 10:45:05;;;;;;;16.97;6.13;;;;;;;;;;5073323;28;20195;-60
2022/01/18 10:47:31;;;;;;;15.40;6.10;;;;;;;;;;5073068;28;20611;-60
2022/01/18 10:49:57;;;;;;;12.90;6.60;;;;;;;;;;5073166;28;20196;-60
2022/01/18 10:52:26;;;;;;;15.63;6.23;;;;;;;;;;5072978;28;20238;-60
2022/01/18 10:54:57;;;;;;;15.33;6.40;;;;;;;;;;5072367;28;20227;-60
2022/01/18 10:57:23;;;;;;;12.13;6.90;;;;;;;;;;5072673;28;20192;-59
2022/01/18 10:59:55;;;;;;;14.73;6.53;;;;;;;;;;5070931;28;20674;-60
2022/01/18 11:02:22;;;;;;;12.27;6.23;;;;;;;;;;5072560;28;20200;-60
2022/01/18 11:04:49;;;;;;;18.87;7.50;;;;;;;;;;5072529;28;20211;-61
2022/01/18 11:07:15;;;;;;;17.93;7.20;;;;;;;;;;5072529;28;20200;-61
2022/01/18 11:09:42;;;;;;;15.77;6.70;;;;;;;;;;5072286;28;20248;-60
2022/01/18 11:12:08;;;;;;;15.77;6.97;;;;;;;;;;5072087;28;20238;-60
2022/01/18 11:14:37;;;;;;;13.00;6.00;;;;;;;;;;5072138;28;20224;-60
2022/01/18 11:17:04;;;;;;;15.03;6.00;;;;;;;;;;5072339;28;20257;-59
2022/01/18 11:19:34;;;;;;;14.47;6.17;;;;;;;;;;5072128;28;20681;-59
2022/01/18 11:22:02;;;;;;;15.03;5.67;;;;;;;;;;5072473;28;20211;-61
2022/01/18 11:24:29;;;;;;;11.67;5.07;;;;;;;;;;5072089;28;20653;-60
2022/01/18 11:26:55;;;;;;;10.67;4.90;;;;;;;;;;5072365;28;20202;-63
2022/01/18 11:29:21;;;;;;;15.83;5.77;;;;;;;;;;5070237;28;20241;-61
2022/01/18 11:31:48;;;;;;;11.40;4.77;;;;;;;;;;5072457;28;20261;-61
2022/01/18 11:34:17;;;;;;;8.73;3.80;;;;;;;;;;5072255;28;20684;-60
2022/01/18 11:36:47;;;;;;;10.97;4.07;;;;;;;;;;5072144;28;20206;-60
2022/01/18 11:39:13;;;;;;;10.20;3.30;;;;;;;;;;5072272;28;20200;-59
2022/01/18 11:41:39;;;;;;;8.67;4.00;;;;;;;;;;5072158;28;20196;-60
2022/01/18 11:44:12;;;;;;;10.20;3.83;;;;;;;;;;5072119;28;20689;-61
2022/01/18 11:46:40;;;;;;;6.30;3.47;;;;;;;;;;5071848;28;20273;-62
2022/01/18 11:49:07;;;;;;;14.20;3.90;;;;;;;;;;5072068;28;20199;-61
2022/01/18 11:51:38;;;;;;;9.10;3.80;;;;;;;;;;5072130;28;20195;-60
2022/01/18 11:54:19;;;;;;;10.00;3.53;;;;;;;;;;5072186;28;20233;-60
2022/01/18 11:56:46;;;;;;;8.60;3.50;;;;;;;;;;5071877;28;20567;-61
2022/01/18 11:59:13;;;;;;;9.83;3.30;;;;;;;;;;5072031;28;20290;-61
2022/01/18 12:01:46;;;;;;;6.87;2.87;;;;;;;;;;5071966;28;20199;-61
2022/01/18 12:04:12;;;;;;;7.93;3.07;;;;;;;;;;5072052;28;20187;-60
2022/01/18 12:06:44;;;;;;;10.57;2.80;;;;;;;;;;5071855;28;20240;-61
2022/01/18 12:09:25;;;;;;;7.23;2.53;;;;;;;;;;5072027;28;20207;-61
2022/01/18 12:11:56;;;;;;;6.53;2.60;;;;;;;;;;5071396;28;20247;-61
2022/01/18 12:14:32;;;;;;;7.17;2.57;;;;;;;;;;5071860;28;20586;-60
2022/01/18 12:17:11;;;;;;;5.40;2.10;;;;;;;;;;5071880;28;20727;-61
2022/01/18 12:19:42;;;;;;;4.33;2.10;;;;;;;;;;5071972;28;20286;-61
2022/01/18 12:22:08;;;;;;;8.30;2.63;;;;;;;;;;5071864;28;20733;-60
2022/01/18 12:24:34;;;;;;;5.93;2.10;;;;;;;;;;5071731;28;20234;-60
2022/01/18 12:27:21;;;;;;;5.10;1.97;;;;;;;;;;5071834;28;20281;-61
2022/01/18 12:30:15;;;;;;;6.23;2.17;;;;;;;;;;5071627;28;20282;-61
2022/01/18 12:32:56;;;;;;;6.63;1.97;;;;;;;;;;5071401;28;20195;-61
2022/01/18 12:35:24;;;;;;;6.57;2.10;;;;;;;;;;5071939;28;20227;-61
2022/01/18 12:37:51;;;;;;;7.03;2.33;;;;;;;;;;5071582;28;20286;-59
2022/01/18 12:40:33;;;;;;;5.97;2.10;;;;;;;;;;5073302;28;20192;-62
2022/01/18 12:45:37;;;;;;;8.13;3.43;;;;;;;;;;5075605;28;20207;-61
2022/01/18 12:48:04;;;;;;;9.80;2.77;;;;;;;;;;5075656;28;20196;-59
2022/01/18 12:50:32;;;;;;;6.00;2.13;;;;;;;;;;5075498;28;20207;-60
2022/01/18 12:52:59;;;;;;;6.47;2.70;;;;;;;;;;5074844;28;20206;-61
2022/01/18 12:55:29;;;;;;;7.07;2.70;;;;;;;;;;5075259;28;20692;-61
2022/01/18 12:57:59;;;;;;;7.60;2.67;;;;;;;;;;5073902;28;20215;-61
2022/01/18 13:00:27;;;;;;;6.77;2.50;;;;;;;;;;5073545;28;20246;-61
2022/01/18 13:02:57;;;;;;;6.83;2.43;;;;;;;;;;5075155;28;20249;-61
2022/01/18 13:05:33;;;;;;;6.20;2.57;;;;;;;;;;5075064;28;20195;-61
2022/01/18 13:08:00;;;;;;;6.20;2.47;;;;;;;;;;5075059;28;20196;-60
2022/01/18 13:10:34;;;;;;;9.77;2.83;;;;;;;;;;5074986;28;20202;-60
2022/01/18 13:13:00;;;;;;;7.63;2.90;;;;;;;;;;5075025;28;20231;-60
2022/01/18 13:15:41;;;;;;;9.10;3.10;;;;;;;;;;5073276;28;20227;-60
2022/01/18 13:26:26;;;;;;;10.47;2.83;;;;;;;;;;5075099;28;20682;-60
2022/01/18 13:28:52;;;;;;;10.60;3.40;;;;;;;;;;5074630;28;20400;-60
2022/01/18 13:31:21;;;;;;;7.57;3.50;;;;;;;;;;5074835;28;20244;-60
2022/01/18 13:33:51;;;;;;;10.83;3.17;;;;;;;;;;5074776;28;20200;-60
2022/01/18 13:36:17;;;;;;;11.47;3.43;;;;;;;;;;5074693;28;20567;-59
2022/01/18 13:38:43;;;;;;;9.67;3.60;;;;;;;;;;5074535;28;20532;-61
2022/01/18 13:41:09;;;;;;;11.63;3.40;;;;;;;;;;5065305;28;20210;-58
2022/01/18 13:43:35;;;;;;;9.53;3.40;;;;;;;;;;5074545;28;20196;-57
2022/01/18 13:46:01;;;;;;;9.80;3.20;;;;;;;;;;5074143;28;20297;-58
2022/01/18 13:48:33;;;;;;;12.10;3.77;;;;;;;;;;5074500;28;20205;-58
2022/01/18 13:51:08;;;;;;;8.73;4.00;;;;;;;;;;5074104;28;20203;-60
2022/01/18 13:53:35;;;;;;;10.73;4.07;;;;;;;;;;5074197;28;20696;-59
2022/01/18 13:56:02;;;;;;;11.37;3.87;;;;;;;;;;5073906;28;20260;-59
2022/01/18 13:58:30;;;;;;;10.47;4.40;;;;;;;;;;5074281;28;20204;-59
2022/01/18 14:01:06;;;;;;;14.50;4.90;;;;;;;;;;5072283;28;20528;-61
2022/01/18 14:03:34;;;;;;;15.57;5.60;;;;;;;;;;5074468;28;20191;-60
2022/01/18 14:06:00;;;;;;;11.37;5.87;;;;;;;;;;5074090;28;20203;-61
2022/01/18 14:08:31;;;;;;;12.80;5.40;;;;;;;;;;5067540;28;20565;-60
2022/01/18 14:11:01;;;;;;;11.87;5.07;;;;;;;;;;5075341;28;20203;-61
2022/01/18 14:13:28;;;;;;;10.27;4.80;;;;;;;;;;5074331;28;20235;-60
2022/01/18 14:15:54;;;;;;;11.13;3.73;;;;;;;;;;5074033;28;20235;-60
2022/01/18 14:18:20;;;;;;;14.20;4.97;;;;;;;;;;5073964;28;20195;-61
2022/01/18 14:20:47;;;;;;;9.30;4.10;;;;;;;;;;5073802;28;20222;-61
2022/01/18 14:23:18;;;;;;;8.07;3.87;;;;;;;;;;5073788;28;20196;-61
2022/01/18 14:25:46;;;;;;;7.67;4.00;;;;;;;;;;5073606;28;20192;-61
2022/01/18 14:28:14;;;;;;;10.73;4.30;;;;;;;;;;5073444;28;20717;-61
2022/01/18 14:30:43;;;;;;;9.93;4.93;;;;;;;;;;5073062;28;20203;-63
2022/01/18 14:33:09;;;;;;;8.73;4.17;;;;;;;;;;5073286;28;20196;-61
2022/01/18 14:35:37;;;;;;;12.40;4.13;;;;;;;;;;5072949;28;20227;-61
2022/01/18 14:38:06;;;;;;;7.67;4.40;;;;;;;;;;5073067;28;20196;-60
2022/01/18 14:40:35;;;;;;;8.00;4.50;;;;;;;;;;5073376;28;20249;-60
2022/01/18 14:43:10;;;;;;;9.07;3.80;;;;;;;;;;5071423;28;20303;-60
2022/01/18 14:45:42;;;;;;;7.83;4.30;;;;;;;;;;5073190;28;20195;-60
2022/01/18 14:48:10;;;;;;;10.53;4.20;;;;;;;;;;5073098;28;20230;-60
2022/01/18 14:50:36;;;;;;;11.17;4.00;;;;;;;;;;5073055;28;20191;-62
2022/01/18 14:53:03;;;;;;;6.47;3.80;;;;;;;;;;5072909;28;20593;-59
2022/01/18 14:55:31;;;;;;;5.80;3.80;;;;;;;;;;5072724;28;20227;-60
2022/01/18 14:57:58;;;;;;;9.03;3.63;;;;;;;;;;5070768;28;20207;-61
2022/01/18 15:00:24;;;;;;;7.63;3.70;;;;;;;;;;5072905;28;20199;-59
2022/01/18 15:02:51;;;;;;;7.50;4.57;;;;;;;;;;5072164;28;20200;-60
2022/01/18 15:05:17;;;;;;;8.83;4.47;;;;;;;;;;5072850;28;20248;-61
2022/01/18 15:07:44;;;;;;;8.57;4.47;;;;;;;;;;5072709;28;20203;-58
2022/01/18 15:10:10;;;;;;;7.63;4.97;;;;;;;;;;5072820;28;20544;-58
2022/01/18 15:12:38;;;;;;;9.50;5.33;;;;;;;;;;5072570;28;20240;-57
2022/01/18 15:15:05;;;;;;;7.40;5.60;;;;;;;;;;5072427;28;20732;-59
2022/01/18 15:17:31;;;;;;;9.33;5.77;;;;;;;;;;5072468;28;20231;-59
2022/01/18 15:19:57;;;;;;;8.70;5.50;;;;;;;;;;5071753;28;20245;-60
2022/01/18 15:22:23;;;;;;;6.73;5.63;;;;;;;;;;5071927;28;20302;-59
2022/01/18 15:24:49;;;;;;;8.13;5.90;;;;;;;;;;5068924;28;20206;-58
2022/01/18 15:27:16;;;;;;;8.53;5.33;;;;;;;;;;5071838;28;20191;-59
2022/01/18 15:29:46;;;;;;;9.13;4.37;;;;;;;;;;5072065;28;20203;-58
2022/01/18 15:32:12;;;;;;;8.03;4.57;;;;;;;;;;5071960;28;20673;-59
2022/01/18 15:34:38;;;;;;;8.30;5.33;;;;;;;;;;5071985;28;20222;-58
2022/01/18 15:37:04;;;;;;;9.67;5.30;;;;;;;;;;5071864;28;20200;-58
2022/01/18 15:39:31;;;;;;;6.77;5.30;;;;;;;;;;5072116;28;20202;-58
2022/01/18 15:41:57;;;;;;;8.83;5.30;;;;;;;;;;5071841;28;20567;-58
2022/01/18 15:44:24;;;;;;;8.30;5.00;;;;;;;;;;5071824;28;20701;-59
2022/01/18 15:46:51;;;;;;;10.20;5.57;;;;;;;;;;5071860;28;20191;-58
2022/01/18 15:49:20;;;;;;;7.40;4.57;;;;;;;;;;5072016;28;20202;-58
2022/01/18 15:51:46;;;;;;;5.77;4.83;;;;;;;;;;5071835;28;20191;-59
2022/01/18 15:54:13;;;;;;;7.90;5.77;;;;;;;;;;5071641;28;20220;-60